Time;durP1;ratioP1;P1;durP2;ratioP2;P2;SDS_P1;SDS_P2;PMS_P1;PMS_P2;Temp;Humidity;BMP_temperature;BMP_pressure;BME280_temperature;BME280_humidity;BME280_pressure;Samples;Min_cycle;Max_cycle;Signal;HPM_P1;HPM_P2
2023/04/28 00:00:56;;;;;;;11.70;2.80;;;;;;;2.34;72.52;100206.50;109304;1253;57465;-66
2023/04/28 00:03:42;;;;;;;10.80;2.60;;;;;;;2.33;72.56;100203.21;109317;1251;60084;-66
2023/04/28 00:06:29;;;;;;;8.60;2.90;;;;;;;2.33;72.69;100198.86;109494;1251;73071;-66
2023/04/28 00:09:16;;;;;;;7.10;2.50;;;;;;;2.34;72.43;100203.71;109514;1253;66558;-67
2023/04/28 00:12:03;;;;;;;11.90;2.90;;;;;;;2.33;72.74;100203.73;109263;1251;71353;-65
2023/04/28 00:14:52;;;;;;;8.70;2.90;;;;;;;2.33;72.72;100210.73;109415;1251;57707;-67
2023/04/28 00:17:40;;;;;;;9.30;3.10;;;;;;;2.32;72.76;100207.63;109496;1251;59001;-67
2023/04/28 00:20:27;;;;;;;9.40;3.00;;;;;;;2.30;72.84;100208.08;108951;1251;1002463;-66
2023/04/28 00:23:14;;;;;;;9.80;2.80;;;;;;;2.26;73.02;100200.52;108695;1251;1002507;-67
2023/04/28 00:26:01;;;;;;;8.50;2.90;;;;;;;2.22;73.34;100205.59;109477;1251;72433;-68
2023/04/28 00:28:47;;;;;;;8.50;3.20;;;;;;;2.19;73.22;100208.70;109463;1251;59009;-66
2023/04/28 00:31:34;;;;;;;10.50;2.80;;;;;;;2.12;73.32;100202.48;109524;1251;60025;-66
2023/04/28 00:34:21;;;;;;;8.00;2.80;;;;;;;2.14;73.87;100209.79;109491;1251;73064;-65
2023/04/28 00:37:07;;;;;;;7.90;2.70;;;;;;;2.13;73.47;100211.58;109495;1251;67673;-66
2023/04/28 00:39:55;;;;;;;9.00;3.10;;;;;;;2.10;73.55;100211.52;109349;1251;72570;-65
2023/04/28 00:42:42;;;;;;;8.20;2.60;;;;;;;2.05;73.88;100214.83;109575;1251;57461;-64
2023/04/28 00:45:30;;;;;;;9.10;2.90;;;;;;;2.02;74.07;100210.61;109608;1251;59181;-64
2023/04/28 00:48:17;;;;;;;7.10;2.40;;;;;;;1.99;73.96;100207.20;109431;1251;72855;-65
2023/04/28 00:51:05;;;;;;;9.00;2.40;;;;;;;1.95;74.47;100208.61;109686;1251;67738;-64
2023/04/28 00:53:51;;;;;;;10.70;2.90;;;;;;;1.92;74.65;100211.02;109316;1251;71595;-65
2023/04/28 00:56:37;;;;;;;8.70;3.00;;;;;;;1.89;74.60;100214.10;109443;1251;58836;-64
2023/04/28 00:59:24;;;;;;;8.60;2.80;;;;;;;1.87;74.89;100214.86;109638;1251;58682;-65
2023/04/28 01:02:16;;;;;;;8.80;2.80;;;;;;;1.85;74.57;100217.02;109598;1251;73163;-65
2023/04/28 01:05:03;;;;;;;9.40;2.90;;;;;;;1.84;74.96;100220.58;109594;1251;66653;-66
2023/04/28 01:07:51;;;;;;;8.50;2.80;;;;;;;1.82;74.99;100215.05;109522;1251;71393;-67
2023/04/28 01:10:43;;;;;;;9.90;2.80;;;;;;;1.80;75.05;100216.69;109449;1251;57346;-66
2023/04/28 01:13:32;;;;;;;9.70;3.20;;;;;;;1.78;75.12;100213.14;108900;1251;1003072;-67
2023/04/28 01:16:19;;;;;;;10.00;2.80;;;;;;;1.74;75.07;100212.05;109635;1251;74079;-67
2023/04/28 01:19:18;;;;;;;8.40;2.60;;;;;;;1.72;75.39;100215.27;109312;1251;67830;-67
2023/04/28 01:22:05;;;;;;;9.10;2.90;;;;;;;1.69;75.46;100215.38;109217;1255;72780;-67
2023/04/28 01:24:52;;;;;;;15.90;3.40;;;;;;;1.68;75.60;100215.23;109184;1257;58063;-66
2023/04/28 01:27:39;;;;;;;8.40;2.90;;;;;;;1.68;76.04;100215.77;109266;1256;60184;-66
2023/04/28 01:30:25;;;;;;;8.80;2.70;;;;;;;1.67;76.02;100217.38;108365;1256;1002763;-66
2023/04/28 01:33:12;;;;;;;8.70;2.60;;;;;;;1.67;76.38;100219.30;108415;1256;1002491;-68
2023/04/28 01:36:01;;;;;;;9.20;2.80;;;;;;;1.66;76.62;100214.79;109168;1255;72624;-68
2023/04/28 01:38:47;;;;;;;7.30;2.80;;;;;;;1.65;76.83;100216.23;109135;1257;57410;-67
2023/04/28 01:41:34;;;;;;;7.90;2.50;;;;;;;1.65;76.67;100217.98;109153;1255;60172;-66
2023/04/28 01:44:20;;;;;;;7.50;2.60;;;;;;;1.63;76.92;100217.19;109111;1256;72851;-68
2023/04/28 01:47:08;;;;;;;7.80;3.20;;;;;;;1.61;76.72;100220.08;109237;1256;68152;-66
2023/04/28 01:49:55;;;;;;;8.70;3.00;;;;;;;1.58;77.14;100219.98;109108;1256;73044;-66
2023/04/28 01:52:41;;;;;;;6.50;2.70;;;;;;;1.55;77.65;100223.60;109146;1255;58536;-67
2023/04/28 01:55:31;;;;;;;9.60;2.80;;;;;;;1.53;77.83;100222.63;109237;1256;59046;-67
2023/04/28 01:58:19;;;;;;;10.60;2.60;;;;;;;1.52;78.03;100220.73;109170;1256;72897;-67
2023/04/28 02:01:07;;;;;;;10.50;3.00;;;;;;;1.54;78.81;100221.91;109309;1253;66502;-67
2023/04/28 02:03:54;;;;;;;8.10;2.60;;;;;;;1.56;78.55;100220.42;109452;1251;71262;-66
2023/04/28 02:06:42;;;;;;;8.70;3.00;;;;;;;1.56;78.46;100223.40;107765;1251;1002357;-66
2023/04/28 02:09:28;;;;;;;8.80;2.70;;;;;;;1.56;78.29;100222.88;109344;1251;60260;-66
2023/04/28 02:12:17;;;;;;;6.60;2.50;;;;;;;1.56;78.71;100224.45;109364;1251;73735;-66
2023/04/28 02:15:04;;;;;;;6.50;2.50;;;;;;;1.54;78.74;100223.30;109519;1251;66573;-66
2023/04/28 02:17:52;;;;;;;7.90;2.40;;;;;;;1.53;78.80;100220.00;109345;1251;70126;-67
2023/04/28 02:20:39;;;;;;;9.40;2.50;;;;;;;1.51;79.31;100218.16;109279;1253;58424;-67
2023/04/28 02:23:27;;;;;;;11.30;3.10;;;;;;;1.51;79.62;100218.14;109147;1256;60050;-67
2023/04/28 02:26:14;;;;;;;11.30;2.80;;;;;;;1.52;79.39;100221.96;109234;1256;72152;-67
2023/04/28 02:29:03;;;;;;;10.30;3.00;;;;;;;1.53;79.16;100219.15;109205;1255;66415;-65
2023/04/28 02:31:52;;;;;;;12.10;3.50;;;;;;;1.53;79.75;100218.60;109172;1255;72515;-67
2023/04/28 02:34:38;;;;;;;6.70;2.60;;;;;;;1.55;79.76;100219.23;109141;1257;57501;-66
2023/04/28 02:37:26;;;;;;;9.00;3.10;;;;;;;1.54;79.61;100218.74;109090;1256;60475;-66
2023/04/28 02:40:13;;;;;;;9.10;2.90;;;;;;;1.54;79.61;100223.29;109095;1255;73123;-66
2023/04/28 02:43:00;;;;;;;10.60;2.80;;;;;;;1.52;80.08;100223.16;109216;1256;66840;-64
2023/04/28 02:45:47;;;;;;;9.70;2.70;;;;;;;1.52;80.25;100222.15;108380;1256;1002250;-67
2023/04/28 02:48:35;;;;;;;8.90;2.90;;;;;;;1.51;80.63;100223.59;108381;1257;1002751;-67
2023/04/28 02:51:21;;;;;;;9.70;3.30;;;;;;;1.52;80.63;100227.02;109190;1255;60062;-66
2023/04/28 02:54:08;;;;;;;12.30;2.70;;;;;;;1.55;80.47;100227.83;109234;1251;73063;-65
2023/04/28 02:56:57;;;;;;;7.80;2.80;;;;;;;1.57;80.52;100229.15;109545;1253;67696;-65
2023/04/28 02:59:43;;;;;;;8.80;3.20;;;;;;;1.60;80.61;100227.09;109274;1251;72503;-64
2023/04/28 03:02:30;;;;;;;9.00;3.80;;;;;;;1.65;80.77;100221.29;109459;1251;57334;-66
2023/04/28 03:05:16;;;;;;;8.80;2.80;;;;;;;1.70;80.44;100221.64;109594;1251;59172;-66
2023/04/28 03:08:02;;;;;;;6.00;2.10;;;;;;;1.73;80.60;100220.86;109478;1251;71503;-65
2023/04/28 03:10:49;;;;;;;10.80;3.20;;;;;;;1.74;80.44;100223.95;109308;1253;67984;-63
2023/04/28 03:13:36;;;;;;;8.10;2.50;;;;;;;1.75;80.26;100229.50;108828;1252;1003034;-65
2023/04/28 03:16:23;;;;;;;7.30;2.30;;;;;;;1.76;79.95;100229.63;109349;1251;57327;-64
2023/04/28 03:19:11;;;;;;;6.90;2.40;;;;;;;1.75;80.00;100230.19;109381;1251;60391;-66
2023/04/28 03:21:58;;;;;;;7.70;2.50;;;;;;;1.74;79.81;100230.41;108996;1259;74185;-63
2023/04/28 03:24:45;;;;;;;7.50;2.60;;;;;;;1.73;79.91;100229.41;108863;1259;67714;-69
2023/04/28 03:27:31;;;;;;;8.40;2.20;;;;;;;1.72;80.11;100234.15;108890;1259;72516;-66
2023/04/28 03:30:18;;;;;;;7.80;2.90;;;;;;;1.71;79.99;100234.36;108982;1259;57478;-66
2023/04/28 03:33:06;;;;;;;10.70;3.00;;;;;;;1.74;79.99;100234.81;108918;1258;61289;-71
2023/04/28 03:35:53;;;;;;;12.80;4.90;;;;;;;1.78;79.86;100239.00;109025;1257;70510;-67
2023/04/28 03:38:40;;;;;;;7.70;2.60;;;;;;;1.82;80.03;100240.08;108994;1258;67616;-68
2023/04/28 03:41:29;;;;;;;7.30;2.40;;;;;;;1.86;79.88;100236.77;108972;1258;71333;-69
2023/04/28 03:44:35;;;;;;;7.10;2.60;;;;;;;1.90;79.85;100236.64;109046;1258;57453;-67
2023/04/28 03:47:21;;;;;;;9.60;2.90;;;;;;;1.92;79.96;100242.17;108971;1259;59233;-66
2023/04/28 03:50:09;;;;;;;7.30;2.20;;;;;;;1.92;79.82;100236.03;108885;1258;73061;-69
2023/04/28 03:52:55;;;;;;;9.00;2.40;;;;;;;1.92;79.99;100238.98;109309;1250;67049;-67
2023/04/28 03:55:44;;;;;;;6.80;2.40;;;;;;;1.92;79.78;100239.36;109563;1251;71082;-69
2023/04/28 03:58:31;;;;;;;8.50;2.50;;;;;;;1.91;79.77;100242.18;109518;1256;57588;-70
2023/04/28 04:01:18;;;;;;;6.70;2.60;;;;;;;1.91;80.11;100242.02;109672;1251;59705;-69
2023/04/28 04:04:07;;;;;;;9.30;2.50;;;;;;;1.91;80.18;100243.95;109450;1251;71812;-68
2023/04/28 04:06:54;;;;;;;9.10;3.20;;;;;;;1.93;79.93;100246.85;109616;1251;67252;-71
2023/04/28 04:09:41;;;;;;;9.80;3.10;;;;;;;1.96;79.82;100247.91;109665;1250;71403;-69
2023/04/28 04:12:28;;;;;;;10.70;3.10;;;;;;;2.02;79.54;100248.59;109422;1251;57259;-71
2023/04/28 04:15:15;;;;;;;9.30;2.70;;;;;;;2.09;79.58;100253.41;109276;1254;60087;-67
2023/04/28 04:18:03;;;;;;;8.10;3.00;;;;;;;2.14;79.35;100258.27;109202;1254;72959;-70
2023/04/28 04:20:58;;;;;;;9.00;3.00;;;;;;;2.19;79.23;100259.83;109003;1256;67898;-68
2023/04/28 04:23:44;;;;;;;8.30;2.60;;;;;;;2.19;79.16;100256.14;109073;1256;72566;-68
2023/04/28 04:26:32;;;;;;;8.10;2.50;;;;;;;2.27;78.85;100256.70;109032;1256;57550;-70
2023/04/28 04:29:18;;;;;;;9.10;2.40;;;;;;;2.31;78.90;100260.91;108936;1257;60270;-69
2023/04/28 04:32:05;;;;;;;7.70;2.50;;;;;;;2.34;78.85;100259.58;108256;1257;1002422;-68
2023/04/28 04:34:52;;;;;;;11.70;3.90;;;;;;;2.36;78.71;100261.92;108986;1256;67956;-70
2023/04/28 04:37:39;;;;;;;10.20;3.90;;;;;;;2.44;78.42;100265.98;108986;1256;72037;-69
2023/04/28 04:40:26;;;;;;;9.90;3.00;;;;;;;2.52;78.34;100266.38;109045;1256;57589;-70
2023/04/28 04:43:14;;;;;;;8.10;2.80;;;;;;;2.61;77.95;100265.85;108973;1256;59069;-69
2023/04/28 04:46:04;;;;;;;8.10;2.20;;;;;;;2.68;77.79;100264.83;109159;1254;71839;-70
2023/04/28 04:48:51;;;;;;;7.50;2.40;;;;;;;2.76;77.61;100262.20;109281;1253;67331;-71
2023/04/28 04:51:38;;;;;;;7.50;2.90;;;;;;;2.84;77.48;100265.59;109228;1254;71204;-68
2023/04/28 04:54:26;;;;;;;11.50;3.00;;;;;;;2.92;77.18;100265.59;109026;1257;58531;-68
2023/04/28 04:57:13;;;;;;;8.30;3.20;;;;;;;3.01;76.99;100267.48;109020;1257;60508;-68
2023/04/28 05:00:38;;;;;;;8.90;3.10;;;;;;;3.13;76.78;100268.54;109054;1254;71563;-68
2023/04/28 05:03:25;;;;;;;9.60;3.20;;;;;;;3.25;76.70;100267.31;109204;1254;67703;-70
2023/04/28 05:06:12;;;;;;;9.50;3.60;;;;;;;3.37;76.45;100270.27;109183;1254;72225;-69
2023/04/28 05:09:03;;;;;;;12.20;3.60;;;;;;;3.53;76.20;100271.31;109155;1254;57385;-69
2023/04/28 05:11:51;;;;;;;10.30;3.70;;;;;;;3.70;75.84;100270.91;109150;1254;61093;-68
2023/04/28 05:14:38;;;;;;;9.40;3.50;;;;;;;3.90;75.51;100271.57;109111;1254;73034;-69
2023/04/28 05:17:24;;;;;;;9.60;3.20;;;;;;;4.12;74.96;100270.19;109242;1254;68004;-69
2023/04/28 05:20:11;;;;;;;9.30;2.90;;;;;;;4.36;74.44;100267.48;109160;1254;72540;-69
2023/04/28 05:23:00;;;;;;;7.80;3.40;;;;;;;4.69;73.35;100269.02;109232;1254;57623;-70
2023/04/28 05:25:48;;;;;;;9.00;2.90;;;;;;;5.26;71.96;100273.70;109455;1251;57812;-69
2023/04/28 05:28:37;;;;;;;10.20;2.80;;;;;;;6.32;69.24;100266.73;109364;1252;73852;-69
2023/04/28 05:31:25;;;;;;;9.80;3.50;;;;;;;7.78;65.28;100259.98;108470;1252;1002231;-70
2023/04/28 05:34:14;;;;;;;10.80;3.00;;;;;;;9.41;60.36;100259.38;109371;1250;73890;-70
2023/04/28 05:37:01;;;;;;;8.30;3.00;;;;;;;10.99;55.41;100254.88;109341;1253;57376;-70
2023/04/28 05:39:49;;;;;;;10.50;3.50;;;;;;;12.47;51.17;100249.19;109386;1254;60474;-69
2023/04/28 05:42:36;;;;;;;10.50;3.50;;;;;;;13.77;47.34;100249.83;109604;1251;71364;-71
2023/04/28 05:45:22;;;;;;;8.60;2.60;;;;;;;15.04;44.54;100241.58;109486;1251;67699;-71
2023/04/28 05:48:09;;;;;;;8.70;2.90;;;;;;;15.59;39.96;100243.49;109533;1251;71482;-69
2023/04/28 05:50:56;;;;;;;10.70;2.90;;;;;;;15.96;38.47;100240.91;109570;1250;57255;-69
2023/04/28 05:53:47;;;;;;;8.10;3.10;;;;;;;16.31;38.28;100240.31;109476;1251;59174;-69
2023/04/28 05:56:34;;;;;;;11.80;3.00;;;;;;;16.88;36.80;100238.13;109553;1250;71653;-69
2023/04/28 05:59:21;;;;;;;9.00;2.60;;;;;;;17.23;36.44;100241.13;109417;1252;68280;-70
2023/04/28 06:02:08;;;;;;;7.80;2.80;;;;;;;17.90;36.36;100234.96;109431;1251;72614;-68
2023/04/28 06:04:57;;;;;;;8.90;2.80;;;;;;;18.65;35.19;100231.30;109565;1251;57288;-74
2023/04/28 06:07:44;;;;;;;8.10;2.50;;;;;;;19.32;33.10;100229.60;109454;1251;58856;-71
2023/04/28 06:10:31;;;;;;;10.40;2.70;;;;;;;19.86;32.27;100225.52;109547;1251;73132;-69
2023/04/28 06:13:17;;;;;;;8.90;2.70;;;;;;;20.33;31.46;100223.23;109560;1251;66323;-71
2023/04/28 06:16:04;;;;;;;8.30;2.50;;;;;;;20.86;30.22;100225.52;109225;1254;71129;-71
2023/04/28 06:18:55;;;;;;;8.90;2.50;;;;;;;21.22;29.32;100228.21;109180;1255;57476;-71
2023/04/28 06:21:42;;;;;;;8.90;2.30;;;;;;;21.57;28.89;100226.82;109208;1256;60194;-70
2023/04/28 06:24:28;;;;;;;9.30;2.40;;;;;;;21.42;27.81;100231.30;108931;1256;231346;-69
2023/04/28 06:27:17;;;;;;;8.20;2.20;;;;;;;21.51;27.59;100233.50;109146;1255;67027;-71
2023/04/28 06:30:04;;;;;;;8.50;2.30;;;;;;;21.79;27.01;100231.98;109271;1255;72496;-70
2023/04/28 06:32:53;;;;;;;8.90;2.50;;;;;;;22.11;26.56;100232.83;109066;1256;57350;-71
2023/04/28 06:35:40;;;;;;;9.00;3.10;;;;;;;22.51;26.01;100226.08;109365;1255;58766;-70
2023/04/28 06:38:27;;;;;;;7.70;2.00;;;;;;;22.86;25.56;100221.08;109077;1256;72205;-70
2023/04/28 06:41:13;;;;;;;7.80;2.00;;;;;;;22.92;24.25;100223.34;109151;1255;66439;-71
2023/04/28 06:44:02;;;;;;;9.20;2.30;;;;;;;23.07;23.89;100216.65;109338;1254;72395;-73
2023/04/28 06:46:50;;;;;;;8.40;2.00;;;;;;;23.03;23.68;100214.29;109368;1251;57692;-72
2023/04/28 06:49:38;;;;;;;7.20;1.70;;;;;;;23.36;23.61;100217.33;109549;1251;60149;-71
2023/04/28 06:52:27;;;;;;;7.10;1.60;;;;;;;23.81;23.25;100216.10;109542;1250;72948;-72
2023/04/28 06:55:34;;;;;;;7.80;1.90;;;;;;;24.21;23.13;100215.92;109575;1251;66396;-70
2023/04/28 06:58:28;;;;;;;9.20;1.60;;;;;;;24.71;22.52;100213.20;109510;1251;71544;-70
2023/04/28 07:01:17;;;;;;;7.40;1.60;;;;;;;25.03;21.71;100210.73;109556;1250;57386;-71
2023/04/28 07:04:12;;;;;;;7.20;1.30;;;;;;;25.32;20.54;100213.67;109442;1250;58937;-70
2023/04/28 07:07:07;;;;;;;6.90;1.40;;;;;;;25.48;20.04;100214.25;109299;1251;74077;-71
2023/04/28 07:09:54;;;;;;;6.90;1.50;;;;;;;25.33;20.16;100210.08;109641;1251;66342;-72
2023/04/28 07:12:40;;;;;;;7.60;1.90;;;;;;;25.55;20.41;100210.86;109703;1250;72493;-72
2023/04/28 07:15:27;;;;;;;6.90;1.40;;;;;;;25.73;19.79;100208.71;109453;1251;57351;-72
2023/04/28 07:18:14;;;;;;;6.10;1.30;;;;;;;25.72;19.08;100206.20;109416;1251;60152;-71
2023/04/28 07:21:01;;;;;;;6.10;1.30;;;;;;;25.76;18.94;100209.99;109395;1251;71528;-70
2023/04/28 07:23:55;;;;;;;6.70;1.50;;;;;;;26.16;19.02;100207.56;109467;1251;67844;-71
2023/04/28 07:26:42;;;;;;;6.90;1.20;;;;;;;26.48;18.76;100200.77;109678;1251;72623;-68
2023/04/28 07:29:32;;;;;;;7.00;1.50;;;;;;;26.58;18.74;100198.59;109536;1251;57278;-70
2023/04/28 07:32:19;;;;;;;7.20;1.40;;;;;;;26.74;18.59;100195.94;109349;1251;60319;-71
2023/04/28 07:35:07;;;;;;;7.40;1.80;;;;;;;26.63;18.82;100189.54;109553;1251;71543;-71
2023/04/28 07:37:54;;;;;;;7.10;1.90;;;;;;;26.72;18.60;100185.86;109567;1251;68699;-72
2023/04/28 07:40:42;;;;;;;6.20;1.50;;;;;;;26.85;18.73;100184.67;109456;1250;72622;-73
2023/04/28 07:43:31;;;;;;;7.00;1.80;;;;;;;26.40;18.67;100188.15;109635;1256;58229;-72
2023/04/28 07:46:17;;;;;;;6.50;1.50;;;;;;;24.48;19.95;100186.96;109473;1251;58537;-69
2023/04/28 07:49:04;;;;;;;7.60;1.60;;;;;;;22.94;21.35;100186.94;109638;1250;71794;-71
2023/04/28 07:51:52;;;;;;;8.50;1.80;;;;;;;21.87;22.75;100192.11;109547;1251;66314;-70
2023/04/28 07:54:38;;;;;;;7.20;1.90;;;;;;;20.47;23.79;100191.67;109685;1250;71787;-71
2023/04/28 07:57:25;;;;;;;8.20;1.80;;;;;;;18.96;25.52;100192.63;109359;1254;57366;-67
2023/04/28 08:00:12;;;;;;;9.50;2.20;;;;;;;17.70;27.29;100196.83;109190;1254;60481;-72
2023/04/28 08:03:01;;;;;;;8.20;2.00;;;;;;;16.67;28.60;100199.71;109414;1253;72568;-67
2023/04/28 08:05:50;;;;;;;7.10;2.00;;;;;;;15.69;30.26;100200.34;109143;1254;67999;-70
2023/04/28 08:08:37;;;;;;;8.20;2.10;;;;;;;14.90;31.73;100203.73;109347;1254;70691;-70
2023/04/28 08:11:24;;;;;;;10.80;2.60;;;;;;;14.35;33.08;100209.65;109409;1254;57830;-71
2023/04/28 08:14:11;;;;;;;7.70;2.20;;;;;;;13.92;34.17;100208.50;109278;1254;60397;-71
2023/04/28 08:16:57;;;;;;;7.80;2.10;;;;;;;14.46;33.91;100205.05;109222;1254;73991;-73
2023/04/28 08:19:45;;;;;;;7.70;2.10;;;;;;;15.53;32.31;100201.19;109305;1254;65403;-69
2023/04/28 08:22:31;;;;;;;7.20;2.70;;;;;;;17.00;30.48;100203.28;109290;1254;73266;-70
2023/04/28 08:25:18;;;;;;;6.90;2.10;;;;;;;18.28;28.85;100191.19;109274;1254;57314;-72
2023/04/28 08:28:07;;;;;;;7.20;1.90;;;;;;;19.97;26.87;100192.17;109279;1254;58996;-72
2023/04/28 08:30:54;;;;;;;7.70;1.90;;;;;;;21.44;23.98;100190.55;109221;1253;72961;-70
2023/04/28 08:33:43;;;;;;;9.60;2.40;;;;;;;22.50;22.28;100183.48;109270;1253;67628;-71
2023/04/28 08:36:32;;;;;;;9.40;1.70;;;;;;;21.91;22.40;100192.21;109314;1251;71657;-70
2023/04/28 08:39:22;;;;;;;8.00;2.00;;;;;;;20.73;23.72;100195.25;109284;1256;57889;-71
2023/04/28 08:42:09;;;;;;;8.80;2.00;;;;;;;19.35;24.95;100198.75;109146;1254;58754;-70
2023/04/28 08:44:58;;;;;;;7.60;2.30;;;;;;;18.00;26.40;100194.95;109247;1254;72983;-70
2023/04/28 08:47:49;;;;;;;7.00;2.00;;;;;;;18.63;26.32;100191.70;109099;1259;67730;-72
2023/04/28 08:50:39;;;;;;;7.80;2.10;;;;;;;20.22;24.53;100180.67;109186;1256;72830;-72
2023/04/28 08:53:26;;;;;;;6.20;1.80;;;;;;;21.11;23.47;100176.16;109259;1254;57980;-71
2023/04/28 08:56:15;;;;;;;6.40;1.70;;;;;;;21.90;22.44;100176.10;109131;1254;58918;-70
2023/04/28 08:59:03;;;;;;;6.20;1.70;;;;;;;23.01;20.78;100171.85;109298;1254;72891;-71
2023/04/28 09:01:50;;;;;;;5.80;1.60;;;;;;;24.09;19.89;100162.77;109234;1256;68983;-67
2023/04/28 09:04:38;;;;;;;6.20;1.50;;;;;;;23.00;19.73;100170.24;109155;1254;72959;-70
2023/04/28 09:07:25;;;;;;;5.90;1.50;;;;;;;21.65;20.92;100175.88;109302;1254;57487;-71
2023/04/28 09:10:25;;;;;;;6.50;1.60;;;;;;;20.96;21.80;100178.29;109315;1251;60218;-72
2023/04/28 09:13:25;;;;;;;8.80;1.80;;;;;;;21.69;21.62;100177.16;109450;1251;71777;-69
2023/04/28 09:16:12;;;;;;;6.40;1.90;;;;;;;22.58;20.29;100169.30;109570;1251;66300;-72
2023/04/28 09:18:59;;;;;;;7.20;1.60;;;;;;;23.71;19.47;100167.45;109544;1251;72391;-73
2023/04/28 09:21:53;;;;;;;7.40;2.00;;;;;;;24.08;19.16;100165.80;109473;1251;57846;-71
2023/04/28 09:24:43;;;;;;;11.40;2.00;;;;;;;24.35;19.54;100170.98;109576;1251;59466;-70
2023/04/28 09:27:30;;;;;;;7.10;1.50;;;;;;;24.23;19.49;100162.17;109485;1254;72069;-70
2023/04/28 09:30:17;;;;;;;7.40;1.70;;;;;;;24.09;19.57;100163.75;109156;1255;68811;-70
2023/04/28 09:33:05;;;;;;;7.40;1.70;;;;;;;23.34;20.18;100164.54;109057;1256;72527;-73
2023/04/28 09:35:53;;;;;;;7.20;1.80;;;;;;;22.68;20.44;100162.84;109155;1256;58267;-72
2023/04/28 09:38:44;;;;;;;6.40;1.80;;;;;;;22.33;20.66;100163.27;109236;1256;60356;-69
2023/04/28 09:41:42;;;;;;;7.80;1.60;;;;;;;21.14;22.35;100169.39;109086;1258;71868;-72
2023/04/28 09:44:29;;;;;;;6.60;1.90;;;;;;;20.14;23.05;100169.34;109111;1256;67720;-70
2023/04/28 09:47:23;;;;;;;6.30;1.70;;;;;;;19.22;24.00;100171.04;109281;1255;71592;-70
2023/04/28 09:50:15;;;;;;;7.20;2.10;;;;;;;18.22;24.73;100168.72;109347;1256;57492;-70
2023/04/28 09:53:03;;;;;;;6.50;1.90;;;;;;;17.88;25.18;100171.05;109275;1257;58854;-70
2023/04/28 09:55:51;;;;;;;7.10;1.70;;;;;;;17.18;25.52;100171.20;109089;1256;72899;-70
2023/04/28 09:58:42;;;;;;;5.30;1.40;;;;;;;16.27;26.03;100171.67;109194;1256;66547;-70
2023/04/28 10:01:40;;;;;;;7.90;2.00;;;;;;;15.60;27.37;100171.52;109291;1252;72537;-72
2023/04/28 10:04:30;;;;;;;6.20;1.90;;;;;;;15.16;28.48;100165.23;109450;1251;57307;-69
2023/04/28 10:07:19;;;;;;;7.40;1.80;;;;;;;14.72;29.55;100169.14;109536;1251;60206;-69
2023/04/28 10:10:07;;;;;;;8.80;2.10;;;;;;;14.29;30.36;100170.04;109420;1251;73001;-72
2023/04/28 10:12:58;;;;;;;7.50;2.30;;;;;;;13.86;31.50;100170.92;109581;1250;68596;-71
2023/04/28 10:15:46;;;;;;;6.40;2.00;;;;;;;13.45;32.04;100170.81;109546;1251;72726;-69
2023/04/28 10:18:36;;;;;;;7.50;3.00;;;;;;;13.05;32.75;100172.61;109472;1251;57794;-70
2023/04/28 10:21:27;;;;;;;6.40;2.00;;;;;;;12.78;33.54;100171.92;109637;1251;60386;-69
2023/04/28 10:24:21;;;;;;;7.00;1.90;;;;;;;12.49;34.37;100169.30;109534;1251;72865;-70
2023/04/28 10:27:08;;;;;;;7.50;2.00;;;;;;;12.14;34.63;100167.41;109447;1253;67243;-68
2023/04/28 10:30:22;;;;;;;9.30;2.40;;;;;;;11.92;34.74;100163.89;109344;1251;70336;-67
2023/04/28 10:33:25;;;;;;;6.30;2.20;;;;;;;11.84;35.47;100167.73;109503;1256;57520;-70
2023/04/28 10:36:51;;;;;;;7.20;2.00;;;;;;;11.85;35.88;100164.25;109603;1251;60056;-67
2023/04/28 10:39:37;;;;;;;6.20;1.70;;;;;;;11.90;35.63;100164.54;109571;1256;71648;-67
2023/04/28 10:42:55;;;;;;;7.20;2.20;;;;;;;11.78;35.15;100143.30;109526;1254;68862;-68
2023/04/28 10:46:12;;;;;;;7.30;2.20;;;;;;;11.97;34.65;100163.36;109638;1251;72537;-71
2023/04/28 10:48:58;;;;;;;7.10;1.80;;;;;;;12.04;34.71;100165.78;108953;1260;57442;-69
2023/04/28 10:51:45;;;;;;;5.70;1.60;;;;;;;12.18;34.58;100165.02;108985;1260;58774;-70
2023/04/28 10:54:32;;;;;;;6.30;1.90;;;;;;;12.96;33.71;100163.35;108910;1260;71765;-68
2023/04/28 10:57:20;;;;;;;6.00;1.90;;;;;;;13.19;32.88;100162.14;108994;1262;66403;-70
2023/04/28 11:00:32;;;;;;;8.50;2.30;;;;;;;13.33;33.27;100164.90;108868;1259;72526;-71
2023/04/28 11:04:32;;;;;;;6.50;1.90;;;;;;;13.67;32.68;100153.91;109020;1259;57348;-69
2023/04/28 11:07:13;;;;;;;9.20;2.20;;;;;;;14.10;31.39;100156.76;108976;1260;61288;-71
2023/04/28 11:10:02;;;;;;;7.20;2.20;;;;;;;14.28;30.33;100147.80;108911;1260;73000;-69
2023/04/28 11:13:26;;;;;;;7.30;2.10;;;;;;;14.31;29.77;100147.89;108847;1260;66320;-68
2023/04/28 11:16:18;;;;;;;6.50;2.20;;;;;;;14.03;30.14;100146.36;108950;1260;71263;-68
2023/04/28 11:19:12;;;;;;;8.70;2.60;;;;;;;13.98;30.74;100140.98;108878;1259;57710;-71
2023/04/28 11:22:01;;;;;;;7.50;2.10;;;;;;;14.06;30.89;100142.20;108890;1260;59548;-70
2023/04/28 11:25:01;;;;;;;7.20;2.20;;;;;;;14.14;31.05;100145.92;108984;1259;72887;-69
2023/04/28 11:27:48;;;;;;;7.70;1.90;;;;;;;14.34;30.95;100147.13;109564;1254;67846;-70
2023/04/28 11:30:35;;;;;;;6.30;2.30;;;;;;;14.77;30.74;100145.63;109435;1251;71684;-71
2023/04/28 11:33:21;;;;;;;7.90;2.90;;;;;;;15.17;30.01;100146.34;109462;1252;57696;-69
2023/04/28 11:36:34;;;;;;;7.40;2.40;;;;;;;15.45;29.47;100145.30;109351;1255;59288;-69
2023/04/28 11:39:31;;;;;;;7.60;2.30;;;;;;;15.68;29.37;100144.16;109562;1254;71714;-69
2023/04/28 11:42:18;;;;;;;7.60;2.30;;;;;;;15.64;29.18;100142.52;109702;1251;66256;-69
2023/04/28 11:45:06;;;;;;;6.80;2.30;;;;;;;15.71;29.28;100138.13;109336;1256;71828;-68
2023/04/28 11:47:52;;;;;;;8.40;2.40;;;;;;;15.68;29.23;100137.69;109413;1251;57932;-71
2023/04/28 11:50:39;;;;;;;7.10;2.40;;;;;;;15.58;29.09;100137.81;109536;1251;60363;-69
2023/04/28 11:53:43;;;;;;;7.00;1.90;;;;;;;15.54;29.36;100136.52;109572;1251;73084;-68
2023/04/28 11:56:36;;;;;;;7.70;2.30;;;;;;;15.60;29.43;100136.86;109471;1251;69180;-72
2023/04/28 11:59:35;;;;;;;6.00;2.10;;;;;;;15.62;29.10;100132.77;109423;1251;72517;-70
2023/04/28 12:02:29;;;;;;;6.70;2.30;;;;;;;15.53;29.60;100134.50;109545;1254;57265;-70
2023/04/28 12:05:16;;;;;;;6.60;2.10;;;;;;;15.63;29.41;100132.27;109296;1254;58816;-70
2023/04/28 12:08:04;;;;;;;6.30;2.10;;;;;;;15.76;28.61;100125.61;109614;1250;71563;-70
2023/04/28 12:11:14;;;;;;;7.10;2.10;;;;;;;15.41;28.29;100121.69;109493;1251;66497;-73
2023/04/28 12:14:07;;;;;;;6.90;2.40;;;;;;;14.90;28.96;100121.93;109522;1251;71685;-72
2023/04/28 12:16:57;;;;;;;8.70;2.20;;;;;;;15.05;28.94;100122.11;109558;1258;57297;-70
2023/04/28 12:19:44;;;;;;;7.30;2.30;;;;;;;15.11;28.84;100120.83;108879;1251;1002452;-74
2023/04/28 12:22:45;;;;;;;7.10;2.10;;;;;;;15.03;29.01;100118.40;109543;1251;73099;-69
2023/04/28 12:25:33;;;;;;;6.90;2.20;;;;;;;15.06;28.73;100114.49;109646;1251;68145;-72
2023/04/28 12:28:21;;;;;;;6.20;2.30;;;;;;;15.06;27.91;100117.05;109488;1251;73089;-70
2023/04/28 12:31:08;;;;;;;8.10;2.40;;;;;;;14.96;28.45;100109.59;109372;1251;57341;-71
2023/04/28 12:33:56;;;;;;;7.10;2.30;;;;;;;15.05;29.02;100108.41;109607;1250;58991;-69
2023/04/28 12:36:45;;;;;;;10.20;3.60;;;;;;;15.16;30.02;100109.07;109819;1251;71733;-70
2023/04/28 12:39:36;;;;;;;8.70;2.60;;;;;;;15.18;32.56;100108.40;109822;1251;66578;-70
2023/04/28 12:42:25;;;;;;;7.50;2.60;;;;;;;14.93;33.97;100106.81;109700;1251;72464;-68
2023/04/28 12:45:12;;;;;;;8.80;2.70;;;;;;;14.89;34.93;100104.41;109543;1251;57896;-70
2023/04/28 12:47:59;;;;;;;9.00;2.70;;;;;;;14.92;35.04;100099.98;109388;1251;60173;-70
2023/04/28 12:50:46;;;;;;;12.30;2.90;;;;;;;15.01;35.67;100098.98;109539;1251;73067;-73
2023/04/28 12:53:33;;;;;;;8.40;2.50;;;;;;;15.16;35.30;100100.88;109688;1251;67875;-70
2023/04/28 12:56:20;;;;;;;9.20;2.70;;;;;;;15.05;34.56;100104.80;109508;1251;70666;-71
2023/04/28 12:59:07;;;;;;;7.70;2.60;;;;;;;14.95;34.72;100102.48;109386;1251;57887;-70
2023/04/28 13:01:54;;;;;;;7.90;2.50;;;;;;;14.79;35.44;100102.48;108874;1252;1002217;-73